sensor_id;sensor_type;location;lat;lon;timestamp;pressure;altitude;pressure_sealevel;temperature;humidity
10482;BME280;5288;42.334;23.876;2024-03-17T00:01:12;56436.78;;;-140.56;100.00
10482;BME280;5288;42.334;23.876;2024-03-17T00:03:40;56460.50;;;-140.56;100.00
10482;BME280;5288;42.334;23.876;2024-03-17T00:06:07;56444.69;;;-140.56;100.00
10482;BME280;5288;42.334;23.876;2024-03-17T00:08:35;56419.00;;;-140.56;100.00
10482;BME280;5288;42.334;23.876;2024-03-17T00:11:01;56460.50;;;-140.56;100.00
10482;BME280;5288;42.334;23.876;2024-03-17T00:13:28;56462.47;;;-140.56;100.00
10482;BME280;5288;42.334;23.876;2024-03-17T00:15:54;56426.91;;;-140.56;100.00
10482;BME280;5288;42.334;23.876;2024-03-17T00:18:21;56444.69;;;-140.56;100.00
10482;BME280;5288;42.334;23.876;2024-03-17T00:20:48;56422.97;;;-140.56;100.00
10482;BME280;5288;42.334;23.876;2024-03-17T00:23:15;56440.75;;;-140.56;100.00
10482;BME280;5288;42.334;23.876;2024-03-17T00:25:42;56458.53;;;-140.56;100.00
10482;BME280;5288;42.334;23.876;2024-03-17T00:28:09;56454.59;;;-140.56;100.00
10482;BME280;5288;42.334;23.876;2024-03-17T00:30:37;56440.75;;;-140.56;100.00
10482;BME280;5288;42.334;23.876;2024-03-17T00:33:03;56438.78;;;-140.56;100.00
10482;BME280;5288;42.334;23.876;2024-03-17T00:35:30;56442.72;;;-140.56;100.00
10482;BME280;5288;42.334;23.876;2024-03-17T00:37:56;56419.00;;;-140.56;100.00
10482;BME280;5288;42.334;23.876;2024-03-17T00:40:25;56420.97;;;-140.56;100.00
10482;BME280;5288;42.334;23.876;2024-03-17T00:42:51;56450.63;;;-140.56;100.00
10482;BME280;5288;42.334;23.876;2024-03-17T00:45:19;56464.47;;;-140.56;100.00
10482;BME280;5288;42.334;23.876;2024-03-17T00:47:45;56446.69;;;-140.56;100.00
10482;BME280;5288;42.334;23.876;2024-03-17T00:50:13;56452.59;;;-140.56;100.00
10482;BME280;5288;42.334;23.876;2024-03-17T00:52:39;56454.59;;;-140.56;100.00
10482;BME280;5288;42.334;23.876;2024-03-17T00:55:06;56444.69;;;-140.56;100.00
10482;BME280;5288;42.334;23.876;2024-03-17T00:57:34;56462.47;;;-140.56;100.00
10482;BME280;5288;42.334;23.876;2024-03-17T01:00:01;56448.66;;;-140.56;100.00
10482;BME280;5288;42.334;23.876;2024-03-17T01:02:28;56446.69;;;-140.56;100.00
10482;BME280;5288;42.334;23.876;2024-03-17T01:04:54;56428.88;;;-140.56;100.00
10482;BME280;5288;42.334;23.876;2024-03-17T01:07:21;56436.78;;;-140.56;100.00
10482;BME280;5288;42.334;23.876;2024-03-17T01:09:47;56458.53;;;-140.56;100.00
10482;BME280;5288;42.334;23.876;2024-03-17T01:12:14;56446.69;;;-140.56;100.00
10482;BME280;5288;42.334;23.876;2024-03-17T01:14:42;56428.88;;;-140.56;100.00
10482;BME280;5288;42.334;23.876;2024-03-17T01:17:09;56440.75;;;-140.56;100.00
10482;BME280;5288;42.334;23.876;2024-03-17T01:19:35;56444.69;;;-140.56;100.00
10482;BME280;5288;42.334;23.876;2024-03-17T01:22:02;56436.78;;;-140.56;100.00
10482;BME280;5288;42.334;23.876;2024-03-17T01:24:28;56464.47;;;-140.56;100.00
10482;BME280;5288;42.334;23.876;2024-03-17T01:26:57;56436.78;;;-140.56;100.00
10482;BME280;5288;42.334;23.876;2024-03-17T01:29:23;56444.69;;;-140.56;100.00
10482;BME280;5288;42.334;23.876;2024-03-17T01:31:51;56444.69;;;-140.56;100.00
10482;BME280;5288;42.334;23.876;2024-03-17T01:34:18;56466.44;;;-140.56;100.00
10482;BME280;5288;42.334;23.876;2024-03-17T01:36:44;56442.72;;;-140.56;100.00
10482;BME280;5288;42.334;23.876;2024-03-17T01:39:12;56428.88;;;-140.56;100.00
10482;BME280;5288;42.334;23.876;2024-03-17T01:41:38;56450.63;;;-140.56;100.00
10482;BME280;5288;42.334;23.876;2024-03-17T01:44:05;56460.50;;;-140.56;100.00
10482;BME280;5288;42.334;23.876;2024-03-17T01:46:32;56452.59;;;-140.56;100.00
10482;BME280;5288;42.334;23.876;2024-03-17T01:49:03;56472.38;;;-140.56;100.00
10482;BME280;5288;42.334;23.876;2024-03-17T01:51:30;56436.78;;;-140.56;100.00
10482;BME280;5288;42.334;23.876;2024-03-17T01:53:58;56490.16;;;-140.56;100.00
10482;BME280;5288;42.334;23.876;2024-03-17T01:56:24;56434.81;;;-140.56;100.00
10482;BME280;5288;42.334;23.876;2024-03-17T01:58:51;56454.59;;;-140.56;100.00
10482;BME280;5288;42.334;23.876;2024-03-17T02:01:17;56450.63;;;-140.56;100.00
10482;BME280;5288;42.334;23.876;2024-03-17T02:03:44;56446.69;;;-140.56;100.00
10482;BME280;5288;42.334;23.876;2024-03-17T02:06:11;56442.72;;;-140.56;100.00
10482;BME280;5288;42.334;23.876;2024-03-17T02:08:49;56454.59;;;-140.56;100.00
10482;BME280;5288;42.334;23.876;2024-03-17T02:11:24;56440.75;;;-140.56;100.00
10482;BME280;5288;42.334;23.876;2024-03-17T02:13:52;56474.34;;;-140.56;100.00
10482;BME280;5288;42.334;23.876;2024-03-17T02:16:19;56456.56;;;-140.56;100.00
10482;BME280;5288;42.334;23.876;2024-03-17T02:18:46;56448.66;;;-140.56;100.00
10482;BME280;5288;42.334;23.876;2024-03-17T02:21:14;56438.78;;;-140.56;100.00
10482;BME280;5288;42.334;23.876;2024-03-17T02:23:44;56456.56;;;-140.56;100.00
10482;BME280;5288;42.334;23.876;2024-03-17T02:26:10;56448.66;;;-140.56;100.00
10482;BME280;5288;42.334;23.876;2024-03-17T02:28:40;56454.59;;;-140.56;100.00
10482;BME280;5288;42.334;23.876;2024-03-17T02:31:08;56448.66;;;-140.56;100.00
10482;BME280;5288;42.334;23.876;2024-03-17T02:33:36;56468.41;;;-140.56;100.00
10482;BME280;5288;42.334;23.876;2024-03-17T02:36:03;56452.59;;;-140.56;100.00
10482;BME280;5288;42.334;23.876;2024-03-17T02:38:32;56452.59;;;-140.56;100.00
10482;BME280;5288;42.334;23.876;2024-03-17T02:41:19;56454.59;;;-140.56;100.00
10482;BME280;5288;42.334;23.876;2024-03-17T02:43:46;56480.28;;;-140.56;100.00
10482;BME280;5288;42.334;23.876;2024-03-17T02:46:14;56454.59;;;-140.56;100.00
10482;BME280;5288;42.334;23.876;2024-03-17T02:48:43;56450.63;;;-140.56;100.00
10482;BME280;5288;42.334;23.876;2024-03-17T02:51:13;56446.69;;;-140.56;100.00
10482;BME280;5288;42.334;23.876;2024-03-17T02:53:41;56504.00;;;-140.56;100.00
10482;BME280;5288;42.334;23.876;2024-03-17T02:56:08;56448.66;;;-140.56;100.00
10482;BME280;5288;42.334;23.876;2024-03-17T02:58:39;56462.47;;;-140.56;100.00
10482;BME280;5288;42.334;23.876;2024-03-17T03:01:07;56484.22;;;-140.56;100.00
10482;BME280;5288;42.334;23.876;2024-03-17T03:03:35;56450.63;;;-140.56;100.00
10482;BME280;5288;42.334;23.876;2024-03-17T03:06:03;56472.38;;;-140.56;100.00
10482;BME280;5288;42.334;23.876;2024-03-17T03:08:34;56472.38;;;-140.56;100.00
10482;BME280;5288;42.334;23.876;2024-03-17T03:11:03;56480.28;;;-140.56;100.00
10482;BME280;5288;42.334;23.876;2024-03-17T03:13:31;56480.28;;;-140.56;100.00
10482;BME280;5288;42.334;23.876;2024-03-17T03:16:00;56401.22;;;-140.56;100.00
10482;BME280;5288;42.334;23.876;2024-03-17T03:18:28;56468.41;;;-140.56;100.00
10482;BME280;5288;42.334;23.876;2024-03-17T03:20:55;56450.63;;;-140.56;100.00
10482;BME280;5288;42.334;23.876;2024-03-17T03:23:22;56462.47;;;-140.56;100.00
10482;BME280;5288;42.334;23.876;2024-03-17T03:25:54;56476.31;;;-140.56;100.00
10482;BME280;5288;42.334;23.876;2024-03-17T03:28:22;56492.13;;;-140.56;100.00
10482;BME280;5288;42.334;23.876;2024-03-17T03:30:49;56470.38;;;-140.56;100.00
10482;BME280;5288;42.334;23.876;2024-03-17T03:33:18;56458.53;;;-140.56;100.00
10482;BME280;5288;42.334;23.876;2024-03-17T03:35:45;56466.44;;;-140.56;100.00
10482;BME280;5288;42.334;23.876;2024-03-17T03:38:12;56454.59;;;-140.56;100.00
10482;BME280;5288;42.334;23.876;2024-03-17T03:40:40;56478.28;;;-140.56;100.00
10482;BME280;5288;42.334;23.876;2024-03-17T03:43:07;56440.75;;;-140.56;100.00
10482;BME280;5288;42.334;23.876;2024-03-17T03:45:34;56448.66;;;-140.56;100.00
10482;BME280;5288;42.334;23.876;2024-03-17T03:48:02;56494.09;;;-140.56;100.00
10482;BME280;5288;42.334;23.876;2024-03-17T03:50:31;56460.50;;;-140.56;100.00
10482;BME280;5288;42.334;23.876;2024-03-17T03:52:58;56420.97;;;-140.56;100.00
10482;BME280;5288;42.334;23.876;2024-03-17T03:55:25;56452.59;;;-140.56;100.00
10482;BME280;5288;42.334;23.876;2024-03-17T03:57:52;56454.59;;;-140.56;100.00
10482;BME280;5288;42.334;23.876;2024-03-17T04:00:19;56442.72;;;-140.56;100.00
10482;BME280;5288;42.334;23.876;2024-03-17T04:02:49;56442.72;;;-140.56;100.00
10482;BME280;5288;42.334;23.876;2024-03-17T04:05:15;56430.88;;;-140.56;100.00
10482;BME280;5288;42.334;23.876;2024-03-17T04:07:45;56462.47;;;-140.56;100.00
10482;BME280;5288;42.334;23.876;2024-03-17T04:10:13;56452.59;;;-140.56;100.00
10482;BME280;5288;42.334;23.876;2024-03-17T04:12:40;56422.97;;;-140.56;100.00
10482;BME280;5288;42.334;23.876;2024-03-17T04:15:08;56472.38;;;-140.56;100.00
10482;BME280;5288;42.334;23.876;2024-03-17T04:17:36;56452.59;;;-140.56;100.00
10482;BME280;5288;42.334;23.876;2024-03-17T04:20:04;56448.66;;;-140.56;100.00
10482;BME280;5288;42.334;23.876;2024-03-17T04:22:33;56480.28;;;-140.56;100.00
10482;BME280;5288;42.334;23.876;2024-03-17T04:25:03;56468.41;;;-140.56;100.00
10482;BME280;5288;42.334;23.876;2024-03-17T04:27:30;56490.16;;;-140.56;100.00
10482;BME280;5288;42.334;23.876;2024-03-17T04:29:59;56448.66;;;-140.56;100.00
10482;BME280;5288;42.334;23.876;2024-03-17T04:32:27;56462.47;;;-140.56;100.00
10482;BME280;5288;42.334;23.876;2024-03-17T04:34:54;56454.59;;;-140.56;100.00
10482;BME280;5288;42.334;23.876;2024-03-17T04:37:21;56452.59;;;-140.56;100.00
10482;BME280;5288;42.334;23.876;2024-03-17T04:39:48;56474.34;;;-140.56;100.00
10482;BME280;5288;42.334;23.876;2024-03-17T04:42:18;56488.19;;;-140.56;100.00
10482;BME280;5288;42.334;23.876;2024-03-17T04:44:45;56446.69;;;-140.56;100.00
10482;BME280;5288;42.334;23.876;2024-03-17T04:47:13;56450.63;;;-140.56;100.00
10482;BME280;5288;42.334;23.876;2024-03-17T04:49:41;56464.47;;;-140.56;100.00
10482;BME280;5288;42.334;23.876;2024-03-17T04:52:09;56464.47;;;-140.56;100.00
10482;BME280;5288;42.334;23.876;2024-03-17T04:54:35;56472.38;;;-140.56;100.00
10482;BME280;5288;42.334;23.876;2024-03-17T04:57:02;56432.84;;;-140.56;100.00
10482;BME280;5288;42.334;23.876;2024-03-17T04:59:34;56436.78;;;-140.56;100.00
10482;BME280;5288;42.334;23.876;2024-03-17T05:02:01;56484.22;;;-140.56;100.00
10482;BME280;5288;42.334;23.876;2024-03-17T05:04:28;56456.56;;;-140.56;100.00
10482;BME280;5288;42.334;23.876;2024-03-17T05:06:56;56456.56;;;-140.56;100.00
10482;BME280;5288;42.334;23.876;2024-03-17T05:09:23;56450.63;;;-140.56;100.00
10482;BME280;5288;42.334;23.876;2024-03-17T05:11:50;56476.31;;;-140.56;100.00
10482;BME280;5288;42.334;23.876;2024-03-17T05:14:18;56472.38;;;-140.56;100.00
10482;BME280;5288;42.334;23.876;2024-03-17T05:16:49;56462.47;;;-140.56;100.00
10482;BME280;5288;42.334;23.876;2024-03-17T05:19:16;56476.31;;;-140.56;100.00
10482;BME280;5288;42.334;23.876;2024-03-17T05:21:44;56438.78;;;-140.56;100.00
10482;BME280;5288;42.334;23.876;2024-03-17T05:24:11;56446.69;;;-140.56;100.00
10482;BME280;5288;42.334;23.876;2024-03-17T05:26:38;56460.50;;;-140.56;100.00
10482;BME280;5288;42.334;23.876;2024-03-17T05:29:06;56482.25;;;-140.56;100.00
10482;BME280;5288;42.334;23.876;2024-03-17T05:31:33;56450.63;;;-140.56;100.00
10482;BME280;5288;42.334;23.876;2024-03-17T05:34:01;56458.53;;;-140.56;100.00
10482;BME280;5288;42.334;23.876;2024-03-17T05:36:27;56462.47;;;-140.56;100.00
10482;BME280;5288;42.334;23.876;2024-03-17T05:38:58;56420.97;;;-140.56;100.00
10482;BME280;5288;42.334;23.876;2024-03-17T05:41:25;56458.53;;;-140.56;100.00
10482;BME280;5288;42.334;23.876;2024-03-17T05:43:54;56458.53;;;-140.56;100.00
10482;BME280;5288;42.334;23.876;2024-03-17T05:46:24;56462.47;;;-140.56;100.00
10482;BME280;5288;42.334;23.876;2024-03-17T05:48:52;56476.31;;;-140.56;100.00
10482;BME280;5288;42.334;23.876;2024-03-17T05:51:21;56476.31;;;-140.56;100.00
10482;BME280;5288;42.334;23.876;2024-03-17T05:53:51;56448.66;;;-140.56;100.00
10482;BME280;5288;42.334;23.876;2024-03-17T05:56:18;56480.28;;;-140.56;100.00
10482;BME280;5288;42.334;23.876;2024-03-17T05:58:45;56454.59;;;-140.56;100.00
10482;BME280;5288;42.334;23.876;2024-03-17T06:01:14;56458.53;;;-140.56;100.00
10482;BME280;5288;42.334;23.876;2024-03-17T06:03:41;56466.44;;;-140.56;100.00
10482;BME280;5288;42.334;23.876;2024-03-17T06:06:08;56440.75;;;-140.56;100.00
10482;BME280;5288;42.334;23.876;2024-03-17T06:08:38;56420.97;;;-140.56;100.00
10482;BME280;5288;42.334;23.876;2024-03-17T06:11:05;56456.56;;;-140.56;100.00
10482;BME280;5288;42.334;23.876;2024-03-17T06:13:33;56448.66;;;-140.56;100.00
10482;BME280;5288;42.334;23.876;2024-03-17T06:16:02;56482.25;;;-140.56;100.00
10482;BME280;5288;42.334;23.876;2024-03-17T06:18:31;56434.81;;;-140.56;100.00
10482;BME280;5288;42.334;23.876;2024-03-17T06:20:58;56442.72;;;-140.56;100.00
10482;BME280;5288;42.334;23.876;2024-03-17T06:23:25;56422.97;;;-140.56;100.00
10482;BME280;5288;42.334;23.876;2024-03-17T06:25:55;56393.31;;;-140.56;100.00
10482;BME280;5288;42.334;23.876;2024-03-17T06:28:22;56426.91;;;-140.56;100.00
10482;BME280;5288;42.334;23.876;2024-03-17T06:30:57;56403.19;;;-140.56;100.00
10482;BME280;5288;42.334;23.876;2024-03-17T06:33:26;56401.22;;;-140.56;100.00
10482;BME280;5288;42.334;23.876;2024-03-17T06:35:56;56375.53;;;-140.56;100.00
10482;BME280;5288;42.334;23.876;2024-03-17T06:38:23;56383.44;;;-140.56;100.00
10482;BME280;5288;42.334;23.876;2024-03-17T06:40:51;56413.06;;;-140.56;100.00
10482;BME280;5288;42.334;23.876;2024-03-17T06:43:20;56428.88;;;-140.56;100.00
10482;BME280;5288;42.334;23.876;2024-03-17T06:45:54;56381.44;;;-140.56;100.00
10482;BME280;5288;42.334;23.876;2024-03-17T06:48:22;56397.25;;;-140.56;100.00
10482;BME280;5288;42.334;23.876;2024-03-17T06:50:49;56399.25;;;-140.56;100.00
10482;BME280;5288;42.334;23.876;2024-03-17T06:53:17;56385.41;;;-140.56;100.00
10482;BME280;5288;42.334;23.876;2024-03-17T06:55:52;56387.38;;;-140.56;100.00
10482;BME280;5288;42.334;23.876;2024-03-17T06:58:21;56419.00;;;-140.56;100.00
10482;BME280;5288;42.334;23.876;2024-03-17T07:00:53;56413.06;;;-140.56;100.00
10482;BME280;5288;42.334;23.876;2024-03-17T07:03:20;56373.56;;;-140.56;100.00
10482;BME280;5288;42.334;23.876;2024-03-17T07:05:51;56389.34;;;-140.56;100.00
10482;BME280;5288;42.334;23.876;2024-03-17T07:08:19;56369.59;;;-140.56;100.00
10482;BME280;5288;42.334;23.876;2024-03-17T07:10:55;56393.31;;;-140.56;100.00
10482;BME280;5288;42.334;23.876;2024-03-17T07:13:24;56389.34;;;-140.56;99.59
10482;BME280;5288;42.334;23.876;2024-03-17T07:15:51;56371.56;;;-140.56;98.69
10482;BME280;5288;42.334;23.876;2024-03-17T07:18:18;56359.72;;;-140.56;97.03
10482;BME280;5288;42.334;23.876;2024-03-17T07:20:45;56395.28;;;-140.56;96.53
10482;BME280;5288;42.334;23.876;2024-03-17T07:23:13;56332.03;;;-140.56;94.48
10482;BME280;5288;42.334;23.876;2024-03-17T07:25:41;56334.03;;;-140.56;92.26
10482;BME280;5288;42.334;23.876;2024-03-17T07:28:08;56365.66;;;-140.56;90.72
10482;BME280;5288;42.334;23.876;2024-03-17T07:30:37;56363.66;;;-140.56;88.56
10482;BME280;5288;42.334;23.876;2024-03-17T07:33:04;56294.50;;;-140.56;89.90
10482;BME280;5288;42.334;23.876;2024-03-17T07:35:31;56314.25;;;-140.56;86.91
10482;BME280;5288;42.334;23.876;2024-03-17T07:37:59;56357.75;;;-140.56;85.71
10482;BME280;5288;42.334;23.876;2024-03-17T07:40:26;56306.34;;;-140.56;84.35
10482;BME280;5288;42.334;23.876;2024-03-17T07:42:53;56304.38;;;-140.56;79.54
10482;BME280;5288;42.334;23.876;2024-03-17T07:45:20;56326.13;;;-140.56;80.39
10482;BME280;5288;42.334;23.876;2024-03-17T07:47:50;56334.03;;;-140.56;76.66
10482;BME280;5288;42.334;23.876;2024-03-17T07:50:17;56334.03;;;-140.56;76.69
10482;BME280;5288;42.334;23.876;2024-03-17T07:52:44;56290.53;;;-140.56;76.55
10482;BME280;5288;42.334;23.876;2024-03-17T07:55:12;56296.47;;;-140.56;77.88
10482;BME280;5288;42.334;23.876;2024-03-17T07:57:39;56316.25;;;-140.56;73.96
10482;BME280;5288;42.334;23.876;2024-03-17T08:00:07;56312.28;;;-140.56;74.53
10482;BME280;5288;42.334;23.876;2024-03-17T08:02:41;56280.66;;;-140.56;73.95
10482;BME280;5288;42.334;23.876;2024-03-17T08:05:10;56306.34;;;-140.56;71.55
10482;BME280;5288;42.334;23.876;2024-03-17T08:07:37;56300.44;;;-140.56;70.65
10482;BME280;5288;42.334;23.876;2024-03-17T08:10:05;56270.78;;;-140.56;71.30
10482;BME280;5288;42.334;23.876;2024-03-17T08:12:32;56318.22;;;-140.56;69.28
10482;BME280;5288;42.334;23.876;2024-03-17T08:14:59;56284.63;;;-140.56;69.98
10482;BME280;5288;42.334;23.876;2024-03-17T08:17:26;56320.19;;;-140.56;71.91
10482;BME280;5288;42.334;23.876;2024-03-17T08:19:53;56278.69;;;-140.56;68.15
10482;BME280;5288;42.334;23.876;2024-03-17T08:22:22;56290.53;;;-140.56;68.00
10482;BME280;5288;42.334;23.876;2024-03-17T08:24:49;56270.78;;;-140.56;68.66
10482;BME280;5288;42.334;23.876;2024-03-17T08:27:16;56270.78;;;-140.56;69.03
10482;BME280;5288;42.334;23.876;2024-03-17T08:29:43;56286.59;;;-140.56;66.35
10482;BME280;5288;42.334;23.876;2024-03-17T08:32:10;56256.94;;;-140.56;65.75
10482;BME280;5288;42.334;23.876;2024-03-17T08:34:37;56260.91;;;-140.56;64.78
10482;BME280;5288;42.334;23.876;2024-03-17T08:37:04;56266.81;;;-140.56;64.33
10482;BME280;5288;42.334;23.876;2024-03-17T08:39:33;56276.72;;;-140.56;59.55
10482;BME280;5288;42.334;23.876;2024-03-17T08:42:00;56256.94;;;-140.56;62.97
10482;BME280;5288;42.334;23.876;2024-03-17T08:44:27;56253.00;;;-140.56;62.21
10482;BME280;5288;42.334;23.876;2024-03-17T08:46:54;56268.81;;;-140.56;59.52
10482;BME280;5288;42.334;23.876;2024-03-17T08:49:22;56278.69;;;-140.56;57.42
10482;BME280;5288;42.334;23.876;2024-03-17T08:51:50;56251.03;;;-140.56;61.19
10482;BME280;5288;42.334;23.876;2024-03-17T08:54:17;56237.19;;;-140.56;57.95
10482;BME280;5288;42.334;23.876;2024-03-17T08:56:45;56280.66;;;-140.56;57.55
10482;BME280;5288;42.334;23.876;2024-03-17T08:59:12;56253.00;;;-140.56;55.67
10482;BME280;5288;42.334;23.876;2024-03-17T09:01:39;56262.88;;;-140.56;52.88
10482;BME280;5288;42.334;23.876;2024-03-17T09:04:06;56272.75;;;-140.56;53.11
10482;BME280;5288;42.334;23.876;2024-03-17T09:06:33;56243.13;;;-140.56;49.15
10482;BME280;5288;42.334;23.876;2024-03-17T09:09:01;56191.72;;;-140.56;43.65
10482;BME280;5288;42.334;23.876;2024-03-17T09:11:28;56235.22;;;-140.56;41.66
10482;BME280;5288;42.334;23.876;2024-03-17T09:13:57;56247.06;;;-140.56;39.49
10482;BME280;5288;42.334;23.876;2024-03-17T09:16:24;56225.31;;;-140.56;39.78
10482;BME280;5288;42.334;23.876;2024-03-17T09:18:51;56221.38;;;-140.56;41.35
10482;BME280;5288;42.334;23.876;2024-03-17T09:21:18;56207.53;;;-140.56;39.59
10482;BME280;5288;42.334;23.876;2024-03-17T09:23:45;56185.81;;;-140.56;36.60
10482;BME280;5288;42.334;23.876;2024-03-17T09:26:12;56219.41;;;-140.56;38.31
10482;BME280;5288;42.334;23.876;2024-03-17T09:28:42;56209.50;;;-140.56;38.74
10482;BME280;5288;42.334;23.876;2024-03-17T09:31:11;56207.53;;;-140.56;39.78
10482;BME280;5288;42.334;23.876;2024-03-17T09:33:38;56241.13;;;-140.56;38.33
10482;BME280;5288;42.334;23.876;2024-03-17T09:36:06;56189.75;;;-140.56;39.66
10482;BME280;5288;42.334;23.876;2024-03-17T09:38:34;56258.94;;;-140.56;39.37
10482;BME280;5288;42.334;23.876;2024-03-17T09:41:02;56217.41;;;-140.56;40.19
10482;BME280;5288;42.334;23.876;2024-03-17T09:43:31;56207.53;;;-140.56;39.68
10482;BME280;5288;42.334;23.876;2024-03-17T09:46:01;56235.22;;;-140.56;40.78
10482;BME280;5288;42.334;23.876;2024-03-17T09:48:30;56187.78;;;-140.56;39.20
10482;BME280;5288;42.334;23.876;2024-03-17T09:50:58;56205.56;;;-140.56;40.96
10482;BME280;5288;42.334;23.876;2024-03-17T09:53:29;56203.59;;;-140.56;41.30
10482;BME280;5288;42.334;23.876;2024-03-17T09:55:57;56215.44;;;-140.56;40.86
10482;BME280;5288;42.334;23.876;2024-03-17T09:58:25;56197.66;;;-140.56;41.23
10482;BME280;5288;42.334;23.876;2024-03-17T10:00:52;56197.66;;;-140.56;41.17
10482;BME280;5288;42.334;23.876;2024-03-17T10:03:43;56156.16;;;-140.56;38.46
10482;BME280;5288;42.334;23.876;2024-03-17T10:06:12;56191.72;;;-140.56;39.20
10482;BME280;5288;42.334;23.876;2024-03-17T10:08:46;56171.97;;;-140.56;41.29
10482;BME280;5288;42.334;23.876;2024-03-17T10:11:14;56168.00;;;-140.56;38.77
10482;BME280;5288;42.334;23.876;2024-03-17T10:13:42;56146.28;;;-140.56;38.23
10482;BME280;5288;42.334;23.876;2024-03-17T10:16:22;56168.00;;;-140.56;38.32
10482;BME280;5288;42.334;23.876;2024-03-17T10:19:05;56148.25;;;-140.56;38.37
10482;BME280;5288;42.334;23.876;2024-03-17T10:21:33;56199.63;;;-140.56;37.98
10482;BME280;5288;42.334;23.876;2024-03-17T10:24:08;56120.59;;;-140.56;37.47
10482;BME280;5288;42.334;23.876;2024-03-17T10:26:42;56136.41;;;-140.56;38.97
10482;BME280;5288;42.334;23.876;2024-03-17T10:29:23;56156.16;;;-140.56;36.91
10482;BME280;5288;42.334;23.876;2024-03-17T10:31:52;56116.63;;;-140.56;36.75
10482;BME280;5288;42.334;23.876;2024-03-17T10:34:22;56156.16;;;-140.56;37.16
10482;BME280;5288;42.334;23.876;2024-03-17T10:36:51;56130.47;;;-140.56;35.77
10482;BME280;5288;42.334;23.876;2024-03-17T10:39:25;56162.09;;;-140.56;35.58
10482;BME280;5288;42.334;23.876;2024-03-17T10:41:59;56152.22;;;-140.56;35.78
10482;BME280;5288;42.334;23.876;2024-03-17T10:44:27;56140.34;;;-140.56;35.51
10482;BME280;5288;42.334;23.876;2024-03-17T10:47:00;56150.22;;;-140.56;35.46
10482;BME280;5288;42.334;23.876;2024-03-17T10:49:30;56110.72;;;-140.56;35.79
10482;BME280;5288;42.334;23.876;2024-03-17T10:52:00;56118.59;;;-140.56;36.66
10482;BME280;5288;42.334;23.876;2024-03-17T10:54:28;56120.59;;;-140.56;35.76
10482;BME280;5288;42.334;23.876;2024-03-17T10:56:56;56138.38;;;-140.56;37.15
10482;BME280;5288;42.334;23.876;2024-03-17T10:59:31;56156.16;;;-140.56;37.22
10482;BME280;5288;42.334;23.876;2024-03-17T11:02:03;56124.53;;;-140.56;36.73
10482;BME280;5288;42.334;23.876;2024-03-17T11:04:33;56213.47;;;-140.56;36.63
10482;BME280;5288;42.334;23.876;2024-03-17T11:07:01;56160.13;;;-140.56;37.83
10482;BME280;5288;42.334;23.876;2024-03-17T11:09:29;56193.72;;;-140.56;37.50
10482;BME280;5288;42.334;23.876;2024-03-17T11:11:56;56173.94;;;-140.56;37.44
10482;BME280;5288;42.334;23.876;2024-03-17T11:14:23;56191.72;;;-140.56;37.89
10482;BME280;5288;42.334;23.876;2024-03-17T11:16:51;56168.00;;;-140.56;37.48
10482;BME280;5288;42.334;23.876;2024-03-17T11:19:19;56164.06;;;-140.56;37.75
10482;BME280;5288;42.334;23.876;2024-03-17T11:21:47;56173.94;;;-140.56;37.96
10482;BME280;5288;42.334;23.876;2024-03-17T11:24:20;56195.69;;;-140.56;38.25
10482;BME280;5288;42.334;23.876;2024-03-17T11:26:47;56179.88;;;-140.56;37.99
10482;BME280;5288;42.334;23.876;2024-03-17T11:29:27;56187.78;;;-140.56;37.97
10482;BME280;5288;42.334;23.876;2024-03-17T11:31:55;56183.81;;;-140.56;37.96
10482;BME280;5288;42.334;23.876;2024-03-17T11:34:42;56197.66;;;-140.56;38.64
10482;BME280;5288;42.334;23.876;2024-03-17T11:37:42;56175.91;;;-140.56;38.52
10482;BME280;5288;42.334;23.876;2024-03-17T11:40:23;56201.63;;;-140.56;38.42
10482;BME280;5288;42.334;23.876;2024-03-17T11:43:03;56213.47;;;-140.56;38.12
10482;BME280;5288;42.334;23.876;2024-03-17T11:45:31;56191.72;;;-140.56;37.93
10482;BME280;5288;42.334;23.876;2024-03-17T11:47:59;56191.72;;;-140.56;37.95
10482;BME280;5288;42.334;23.876;2024-03-17T11:50:25;56166.03;;;-140.56;38.51
10482;BME280;5288;42.334;23.876;2024-03-17T11:52:59;56183.81;;;-140.56;38.15
10482;BME280;5288;42.334;23.876;2024-03-17T11:55:26;56177.91;;;-140.56;38.28
10482;BME280;5288;42.334;23.876;2024-03-17T11:57:56;56215.44;;;-140.56;37.17
10482;BME280;5288;42.334;23.876;2024-03-17T12:00:23;56183.81;;;-140.56;37.79
10482;BME280;5288;42.334;23.876;2024-03-17T12:02:51;56213.47;;;-140.56;38.72
10482;BME280;5288;42.334;23.876;2024-03-17T12:05:17;56201.63;;;-140.56;38.43
10482;BME280;5288;42.334;23.876;2024-03-17T12:07:46;56229.28;;;-140.56;38.56
10482;BME280;5288;42.334;23.876;2024-03-17T12:10:14;56181.84;;;-140.56;38.60
10482;BME280;5288;42.334;23.876;2024-03-17T12:12:46;56160.13;;;-140.56;38.19
10482;BME280;5288;42.334;23.876;2024-03-17T12:15:17;56191.72;;;-140.56;38.10
10482;BME280;5288;42.334;23.876;2024-03-17T12:17:45;56231.25;;;-140.56;38.32
10482;BME280;5288;42.334;23.876;2024-03-17T12:20:18;56191.72;;;-140.56;37.84
10482;BME280;5288;42.334;23.876;2024-03-17T12:22:45;56197.66;;;-140.56;38.30
10482;BME280;5288;42.334;23.876;2024-03-17T12:25:17;56217.41;;;-140.56;38.36
10482;BME280;5288;42.334;23.876;2024-03-17T12:27:45;56223.34;;;-140.56;37.71
10482;BME280;5288;42.334;23.876;2024-03-17T12:30:12;56185.81;;;-140.56;38.47
10482;BME280;5288;42.334;23.876;2024-03-17T12:32:40;56203.59;;;-140.56;37.79
10482;BME280;5288;42.334;23.876;2024-03-17T12:35:13;56223.34;;;-140.56;38.10
10482;BME280;5288;42.334;23.876;2024-03-17T12:37:43;56199.63;;;-140.56;38.27
10482;BME280;5288;42.334;23.876;2024-03-17T12:40:18;56185.81;;;-140.56;39.13
10482;BME280;5288;42.334;23.876;2024-03-17T12:42:48;56205.56;;;-140.56;39.13